Due to severe server failure at the provider, not all demo sites are operational. Will take some days to rebuilt everything.

Demonstration site - Click on the  for more information

This is an optional block. Switch it on/off in your settings-file: $SITE['bannerTop'] = false; or $SITE['bannerBottom'] = false;

You can display ads, any other important text or photo’s using text / html or PHP code.

You can place one or more at the top and or bottom and it can all be different for content / size .



Visit our other weather sites:

Template documentation
and downloads

And another site



Nearby METAR Reports

   
EBAW - Antwerp
Updated: 18-10-2019 16:50
Partly Cloudy  
Partly Cloudy  
   Wind: SW 11.1 km/h
Wind: SW 11.1 km/h
Temperature: 12°C
Dew Point: 9°C
Humidity: 82%
Barometer: 1006 hPa
Clouds: Partly Cloudy
Visibility: More than 10 km
Cloud details: Partly Cloudy 4300 ft
EBAW 181450Z 22006KT 9999 SCT043 12/09 Q1006 NOSIG
EBLG - Liège
Updated: 18-10-2019 16:50
Few Clouds  
Few Clouds  
   Wind: SW 31.5 km/h
Wind: SW 31.5 km/h
Temperature: 13°C
Dew Point: 7°C
Humidity: 67%
Barometer: 1008 hPa
Clouds: Few Clouds
Visibility: More than 10 km
Cloud details: Few Clouds 3500 ft
EBLG 181450Z 22017KT 9999 FEW035 13/07 Q1008 NOSIG
EBCV - Mons/Bergen
Updated: 18-10-2019 16:55
Mostly Cloudy  
Mostly Cloudy  
   Wind: SSW 25.9 km/h
Wind: SSW 25.9 km/h
Temperature: 14°C
Dew Point: 8°C
Humidity: 67%
Barometer: 1007 hPa
Clouds: Mostly Cloudy
Visibility: More than 10 km
Cloud details: Mostly Cloudy 4100 ft
EBCV 181455Z AUTO 21014KT 9999 BKN041/// 14/08 Q1007 BLU
EHBK - Maastricht
Updated: 18-10-2019 16:55
Few Clouds  
Few Clouds  
   Wind: SW 31.5 km/h
Wind: SW 31.5 km/h
Temperature: 14°C
Dew Point: 7°C
Humidity: 63%
Barometer: 1007 hPa
Clouds: Few Clouds
Visibility: More than 10 km
Cloud details: Few Clouds 4200 ft
EHBK 181455Z AUTO 22017KT 190V250 9999 FEW042 14/07 Q1007 NOSIG
ELLX - Luxemburg
Updated: 18-10-2019 16:50
Few Clouds  
Few Clouds  
   Wind: SW 22.2 km/h
Wind: SW 22.2 km/h
Temperature: 14°C
Dew Point: 6°C
Humidity: 59%
Barometer: 1010 hPa
Clouds: Few Clouds
Visibility: More than 10 km
Cloud details: Few Clouds 3200 ft
ELLX 181450Z 23012KT 200V260 9999 FEW032 14/06 Q1010 NOSIG
EBOS - Oostende
Updated: 18-10-2019 16:50
Light Showers, Rain, Partly Cloudy  
Light Showers, Rain, Partly Cloudy  
   Wind: SW 22.2 km/h
Wind: SW 22.2 km/h
Temperature: 13°C
Dew Point: 10°C
Humidity: 82%
Barometer: 1004 hPa
Clouds: Partly Cloudy
Visibility: More than 10 km
Cloud details: Few Clouds 1500 ft,
Partly Cloudy 2000 ft
EBOS 181450Z 23012KT 200V260 9999 -SHRA FEW015TCU SCT020 13/10 Q1004 NOSIG

Script developed by  Saratoga-weather.org Adapted for the template by  Weerstation Leuven

This is an optional block. Switch it on/off in your settings-file: $SITE['bannerTop'] = false; or $SITE['bannerBottom'] = false;

You can display ads, any other important text or photo’s using text / html or PHP code.

You can place one or more at the top and or bottom and it can all be different for content / size .